Republica Dominicana

VUELOS DE BAJO NIVEL

VUELOS DE BAJO NIVEL DESDE SUPERFICIE HASTA 24,000 PIES.

VALIDO DESDE 311200Z ...……………………HASTA 010000Z

SALIDA  Y  PUESTA  DEL  SOL  06:34 / 18:52 

 

SANTO DOMINGO FIR...PORT-AU-PRINCE FIR... SAN JUAN FIR... N 19N...SCT025-SKC. OTLK...VFR. S 19N...SCT020 SCT-BKN050. OCNL BKN015. TOP 120. WDLY SCT SHRA.   OTLK...VFR SHRA.

 

 

5,000 FT.

10,000 FT.

18,000 FT.

24,000 FT.

MDSD

2010KT+17ºC

1320KT+10ºC

2305KT+06ºC

VRB05KT-17ºC

MTPP

2210KT+17ºC

1420KT+10ºC

2405KT+06ºC

VRB05KT-17ºC

TJSJ

1310KT+18ºC

1215KT+09ºC

2105KT+06ºC

3415KT-18ºC

 

 TAF 

TAF MDPP 311000Z 3112/0112 00000KT 9999 FEW016 BECMG 3113/3115 12008KT=

TAF MDST 311000Z 3112/0112 00000KT 9999 SCT018 BECMG 3113/3115 13008KT=

TAF MDPC 311000Z 3112/0112 09008KT 9999 FEW025 BECMG 3118/3120 11005KT=

TAF MDBH 311000Z 3112/0112 13012KT 9999 FEW018 SCT070=

TAF MDJB 311000Z 3112/0112 04006KT 9999 SCT018 BECMG 3118/3120 12010KT= 

TAF MDSD 311000Z 3112/0112 02004KT 9999 SCT018 BECMG 3116/3118 14004KT=

TAF MDLR 311000Z 3112/0112 00000KT 9999 SCT018 BECMG 3116/3118 08010KT=   

TAF MDCY 311000Z 3112/0112 00000KT 9999 FEW018 BECMG 3115/3117 09010KT= 

KMIA 310852Z 3109/0112 VRB05KT P6SM FEW030 FM311400 19010KT P6SM SCT040 SCT250 FM311800 22014G24KT P6SM SCT030 SCT250 FM010000 24009KT P6SM SCT030 BKN250 FM010900 27008KT P6SM VCSH BKN040 BKN250 

KJFK 310840Z 3109/0112 07009KT P6SM VCSH SCT008 OVC019 TEMPO 3109/3110 5SM -DZ BR BKN008 FM311300 07010KT P6SM OVC025 FM311700 10008KT P6SM BKN035 FM010000 09008KT P6SM BKN050 FM010400 06009KT P6SM SCT025 BKN040 

TJSJ 310542Z 3106/0106 13006KT P6SM FEW030 SCT040 FM311300 06014G20KT P6SM FEW030 FM312300 09009KT P6SM FEW040 

TAF MKJP 310515Z 3106/0106 36007KT 9999 FEW022 BECMG 3115/3117 15010KT SCT022 BECMG 0102/0104 36007KT 

TAF COR MUHA 310500Z 3106/0106 VRB03KT 9000 FEW030 BECMG 3113/3115 18010KT SCT030 BECMG 0100/0102 VRB03KT 

TAF MUGM 3107/0107 35008KT 9999 FEW030 FEW250 QNH2991INS BECMG 3118/3120 18010G16KT 9999 FEW030 SCT250 QNH2987INS FM010000 10010KT 9999 FEW030 SCT100 SCT250 QNH2985INS FM010300 33005KT 9999 FEW040 QNH2985INS T23/3107Z T30/3117Z FN00225 

TAF TNCC 310515Z 3106/0106 10012KT 9999 SCT018 PROB30 TEMPO 3106/3112 8000 SHRA BKN015 

TAF TFFR 310400Z 3106/0106 VRB03KT 9999 SCT030 BECMG 3111/3113 10010KT PROB40 TEMPO 3113/3121 4000 -SHRA BKN018TCU BECMG 3123/0101 VRB02KT

 

PREPARADO POR: ELIZABETH FELIZ B. 31 de MARZO del 2020.-

-




Tamaño letra

Contraste

Otros